Bascom, Ohio
Current Conditions -  °F | °C
As of 5:03 PM on Monday 20 Oct 2014 (Local Time) from KFDY Reporting Station
Overcast Overcast  
Wind Chill: 54°   Ceiling: 2600
Heat Index: 54°   Visibility: 9mi
Dew Point: 51°   Wind: 9mph
Humidity: 90%   Direction: 230°SW
Pressure: 29.82"   Gusts: NA
Location:  41.13°N, 83.29°W
Report Text: KFDY 202103Z AUTO 23008KT 9SM BKN026 OVC065 12/11 A2982 RMK AO2 T01220106
Loading
Personal Weather Stations






























Interactive Weather Map
Tropical Storm Tracking
New forecast layout! Learn more

10-Day Weather Forecast

Advertisements
Track Severe Weather on mobile